Detall de PIREP

Printer-friendly versionPDF version

[2015/05/23 15:42:00]
Flight IATA:CT1062
Pilot Number:026
Company ICAO:CAT
Aircraft Type:DC85/A
PAX:132
Aircraft Registration:PAX
Departing Airport: LICJ
Destination Airport: LTBA
Alternate Airport:LBWN
Online: VATSIM
Route:PAL UL869 KRK UM600 TSL UM603 GOLDO UG12 EKI
Flight Level:F350
No Slew and time accel
No pause
Crash detect
Detect pilot in Cockpit between each 30 and 45 minutes
15:42 Zero fuel Weight: 179109 Lbs, Fuel Weight: 36007 Lbs
15:42 VATSIM:LICJ 232120Z 25013KT 9999 FEW030 18/12 Q1015
15:42 VATSIM:LTBA 232120Z 35004KT 310V030 CAVOK 20/11 Q1010 NOSIG
15:43 ALMOGAVERS ROUTE / LEG 3
15:50 Parking Brakes off
15:57 Take-off
15:57 Take off Weight: 214102 Lbs
15:57 Wind: 249º @ 013 Knots Heading: 247º
15:57 POS N38º 10´ 45´´ E013º 06´ 04´´
15:57 Gear Up: 172 Knots
15:57 Flaps:2 at 172 Knots
15:59 Flaps:1 at 261 Knots
16:00 Flaps:0 at 244 Knots
16:12 Wind:251º@029 Knots Heading: 072º Ground Speed: 498 Knots Altitude 28287 ft
16:22 TOC
16:22 Fuel Weight: 27824 Lb
16:27 Wind:237º@002 Knots Heading: 066º Ground Speed: 465 Knots Altitude 35009 ft
16:42 Wind:286º@012 Knots Heading: 081º Ground Speed: 485 Knots Altitude 34957 ft
16:57 Wind:353º@012 Knots Heading: 068º Ground Speed: 460 Knots Altitude 34944 ft
17:12 Wind:058º@006 Knots Heading: 079º Ground Speed: 469 Knots Altitude 34852 ft
17:24 TOD
17:24 Fuel Weight: 14937 Lb
17:27 Wind:037º@001 Knots Heading: 091º Ground Speed: 492 Knots Altitude 30193 ft
17:42 Wind:352º@013 Knots Heading: 105º Ground Speed: 279 Knots Altitude 5938 ft
17:48 Flaps:1 at 181 Knots
17:48 Flaps:2 at 184 Knots
17:48 Gear Down: 185 Knots
17:49 Flaps:3 at 160 Knots
17:50 Flaps:4 at 166 Knots
17:50 Flaps:5 at 166 Knots
17:51 TouchDown:Rate -373 ft/min Speed: 133 Knots
17:52 VATSIM:LTBA 232320Z 34007KT CAVOK 19/11 Q1009 NOSIG
17:52 Land
17:52 Wind:337º@007 Knots
17:52 Heading: 026º
17:52 Flight Duration: 01:55
17:52 Landing Weight: 190620 Lbs
17:52 POS N40º 59´ 21´´ E028º 48´ 33´´
17:57 Parking brakes on
17:57 Block to Block Duration: 02:07
17:57 Final Fuel: 10934 Lbls
17:57 Spent Fuel: 25072 Lbls
17:57 Flight Length: 803 NM
17:57 TOD Land Length: 154 NM

Exportar CSV

Powered by Drupal - Modified by Danger4k